createdAt,value
2023-05-22T00:00:02.462Z,49
2023-05-22T00:20:03.151Z,49
2023-05-22T00:40:02.600Z,49
2023-05-22T01:00:03.245Z,50
2023-05-22T01:20:03.009Z,51
2023-05-22T01:40:02.433Z,52
2023-05-22T02:00:02.628Z,52
2023-05-22T02:20:03.121Z,53
2023-05-22T02:40:02.520Z,54
2023-05-22T03:00:02.871Z,54
2023-05-22T03:20:02.438Z,55
2023-05-22T03:40:02.803Z,55
2023-05-22T04:00:03.322Z,56
2023-05-22T04:20:02.904Z,56
2023-05-22T04:40:02.281Z,55
2023-05-22T05:00:02.842Z,54
2023-05-22T05:20:03.057Z,53
2023-05-22T05:40:02.500Z,52
2023-05-22T06:00:02.812Z,52
2023-05-22T06:20:02.585Z,51
2023-05-22T06:40:03.226Z,48
2023-05-22T07:00:02.765Z,47
2023-05-22T07:20:02.476Z,46
2023-05-22T07:40:03.141Z,43
2023-05-22T08:00:03.457Z,42
2023-05-22T08:20:03.763Z,40
2023-05-22T08:40:03.363Z,38
2023-05-22T09:00:03.658Z,36
2023-05-22T09:20:03.076Z,35
2023-05-22T09:40:02.731Z,34
2023-05-22T10:00:03.979Z,33
2023-05-22T10:20:02.757Z,32
2023-05-22T10:40:03.132Z,31
2023-05-22T11:00:02.878Z,30
2023-05-22T11:20:03.188Z,29
2023-05-22T11:40:02.931Z,29
2023-05-22T12:00:03.111Z,28
2023-05-22T12:20:02.832Z,26
2023-05-22T12:40:03.376Z,25
2023-05-22T13:00:02.941Z,26
2023-05-22T13:20:02.507Z,26
2023-05-22T13:40:03.109Z,26
2023-05-22T14:00:02.684Z,26
2023-05-22T14:20:02.428Z,26
2023-05-22T14:40:02.948Z,26
2023-05-22T15:00:02.643Z,26
2023-05-22T15:20:02.954Z,26
2023-05-22T15:40:02.607Z,26
2023-05-22T16:00:03.379Z,26
2023-05-22T16:20:03.291Z,27
2023-05-22T16:40:02.942Z,27
2023-05-22T17:00:03.168Z,28
2023-05-22T17:20:02.898Z,28
2023-05-22T17:40:02.434Z,29
2023-05-22T18:00:03.014Z,30
2023-05-22T18:20:03.116Z,32
2023-05-22T18:40:02.609Z,33
2023-05-22T19:00:03.223Z,34
2023-05-22T19:20:03.037Z,35
2023-05-22T19:40:02.624Z,36
2023-05-22T20:00:03.345Z,38
2023-05-22T20:20:03.080Z,38
2023-05-22T20:40:02.513Z,40
2023-05-22T21:00:03.105Z,42
2023-05-22T21:20:02.756Z,44
2023-05-22T21:40:03.327Z,46
2023-05-22T22:00:03.163Z,47
2023-05-22T22:20:02.886Z,48
2023-05-22T22:40:02.455Z,48
2023-05-22T23:00:03.089Z,50
2023-05-22T23:20:02.997Z,50
2023-05-22T23:40:02.605Z,50
